sensor_id;sensor_type;location;lat;lon;timestamp;pressure;altitude;pressure_sealevel;temperature;humidity
40245;BME280;25963;42.694;23.600;2023-02-21T00:02:43;95644.16;;;1.92;93.80
40245;BME280;25963;42.694;23.600;2023-02-21T00:05:28;95644.81;;;1.76;94.50
40245;BME280;25963;42.694;23.600;2023-02-21T00:08:12;95646.50;;;1.59;95.67
40245;BME280;25963;42.694;23.600;2023-02-21T00:10:56;95651.47;;;1.52;95.55
40245;BME280;25963;42.694;23.600;2023-02-21T00:13:40;95652.91;;;1.47;96.57
40245;BME280;25963;42.694;23.600;2023-02-21T00:16:24;95663.00;;;1.32;96.69
40245;BME280;25963;42.694;23.600;2023-02-21T00:19:08;95654.34;;;1.31;95.90
40245;BME280;25963;42.694;23.600;2023-02-21T00:21:52;95638.53;;;1.25;96.82
40245;BME280;25963;42.694;23.600;2023-02-21T00:24:36;95663.81;;;1.32;97.63
40245;BME280;25963;42.694;23.600;2023-02-21T00:27:20;95643.31;;;1.29;98.00
40245;BME280;25963;42.694;23.600;2023-02-21T00:30:05;95640.75;;;1.02;100.00
40245;BME280;25963;42.694;23.600;2023-02-21T00:32:49;95636.31;;;1.12;100.00
40245;BME280;25963;42.694;23.600;2023-02-21T00:35:33;95634.44;;;1.22;100.00
40245;BME280;25963;42.694;23.600;2023-02-21T00:38:17;95633.31;;;1.07;100.00
40245;BME280;25963;42.694;23.600;2023-02-21T00:41:01;95605.56;;;1.07;100.00
40245;BME280;25963;42.694;23.600;2023-02-21T00:43:44;95621.09;;;1.17;100.00
40245;BME280;25963;42.694;23.600;2023-02-21T00:46:28;95616.13;;;1.24;100.00
40245;BME280;25963;42.694;23.600;2023-02-21T00:49:12;95611.91;;;1.23;100.00
40245;BME280;25963;42.694;23.600;2023-02-21T00:51:56;95608.09;;;1.17;100.00
40245;BME280;25963;42.694;23.600;2023-02-21T00:54:40;95601.13;;;1.00;100.00
40245;BME280;25963;42.694;23.600;2023-02-21T00:57:24;95598.66;;;1.16;100.00
40245;BME280;25963;42.694;23.600;2023-02-21T01:00:16;95602.53;;;1.12;100.00
40245;BME280;25963;42.694;23.600;2023-02-21T01:03:00;95602.22;;;1.15;100.00
40245;BME280;25963;42.694;23.600;2023-02-21T01:05:44;95591.63;;;1.08;100.00
40245;BME280;25963;42.694;23.600;2023-02-21T01:08:28;95589.03;;;1.08;100.00
40245;BME280;25963;42.694;23.600;2023-02-21T01:11:17;95583.81;;;1.26;100.00
40245;BME280;25963;42.694;23.600;2023-02-21T01:14:01;95577.81;;;1.26;100.00
40245;BME280;25963;42.694;23.600;2023-02-21T01:16:44;95567.63;;;1.32;100.00
40245;BME280;25963;42.694;23.600;2023-02-21T01:19:29;95561.63;;;1.14;100.00
40245;BME280;25963;42.694;23.600;2023-02-21T01:22:13;95548.47;;;1.33;100.00
40245;BME280;25963;42.694;23.600;2023-02-21T01:24:57;95554.97;;;1.37;100.00
40245;BME280;25963;42.694;23.600;2023-02-21T01:27:41;95553.81;;;1.50;100.00
40245;BME280;25963;42.694;23.600;2023-02-21T01:30:24;95548.59;;;1.50;100.00
40245;BME280;25963;42.694;23.600;2023-02-21T01:33:09;95552.44;;;1.46;100.00
40245;BME280;25963;42.694;23.600;2023-02-21T01:35:53;95553.19;;;1.56;100.00
40245;BME280;25963;42.694;23.600;2023-02-21T01:38:37;95551.84;;;1.52;100.00
40245;BME280;25963;42.694;23.600;2023-02-21T01:41:21;95554.50;;;1.60;100.00
40245;BME280;25963;42.694;23.600;2023-02-21T01:47:15;95547.53;;;1.60;100.00
40245;BME280;25963;42.694;23.600;2023-02-21T01:50:00;95541.38;;;1.62;100.00
40245;BME280;25963;42.694;23.600;2023-02-21T01:52:45;95538.41;;;1.56;100.00
40245;BME280;25963;42.694;23.600;2023-02-21T01:55:31;95535.00;;;1.56;100.00
40245;BME280;25963;42.694;23.600;2023-02-21T01:58:17;95529.78;;;1.56;100.00
40245;BME280;25963;42.694;23.600;2023-02-21T02:01:04;95532.09;;;1.59;100.00
40245;BME280;25963;42.694;23.600;2023-02-21T02:03:48;95517.41;;;1.50;100.00
40245;BME280;25963;42.694;23.600;2023-02-21T02:06:32;95519.94;;;1.42;100.00
40245;BME280;25963;42.694;23.600;2023-02-21T02:09:18;95515.53;;;1.42;100.00
40245;BME280;25963;42.694;23.600;2023-02-21T02:12:28;95504.50;;;1.22;100.00
40245;BME280;25963;42.694;23.600;2023-02-21T02:33:44;95497.31;;;1.16;100.00
40245;BME280;25963;42.694;23.600;2023-02-21T02:36:29;95495.69;;;1.15;100.00
40245;BME280;25963;42.694;23.600;2023-02-21T02:41:55;95497.31;;;1.16;100.00
40245;BME280;25963;42.694;23.600;2023-02-21T02:44:37;95500.16;;;1.23;100.00
40245;BME280;25963;42.694;23.600;2023-02-21T02:47:07;95490.63;;;1.13;100.00
40245;BME280;25963;42.694;23.600;2023-02-21T02:49:37;95496.97;;;1.11;100.00
40245;BME280;25963;42.694;23.600;2023-02-21T02:52:06;95496.59;;;1.06;100.00
40245;BME280;25963;42.694;23.600;2023-02-21T02:54:32;95488.72;;;0.98;100.00
40245;BME280;25963;42.694;23.600;2023-02-21T02:57:00;95480.13;;;0.97;100.00
40245;BME280;25963;42.694;23.600;2023-02-21T02:59:29;95486.81;;;1.00;100.00
40245;BME280;25963;42.694;23.600;2023-02-21T03:05:08;95493.78;;;0.99;100.00
40245;BME280;25963;42.694;23.600;2023-02-21T03:10:22;95502.31;;;0.91;100.00
40245;BME280;25963;42.694;23.600;2023-02-21T03:15:46;95503.44;;;0.89;100.00
40245;BME280;25963;42.694;23.600;2023-02-21T03:20:59;95491.72;;;0.85;100.00
40245;BME280;25963;42.694;23.600;2023-02-21T03:23:28;95495.28;;;0.84;100.00
40245;BME280;25963;42.694;23.600;2023-02-21T03:25:58;95490.91;;;0.84;100.00
40245;BME280;25963;42.694;23.600;2023-02-21T03:28:25;95498.03;;;0.82;100.00
40245;BME280;25963;42.694;23.600;2023-02-21T03:30:52;95490.16;;;0.74;100.00
40245;BME280;25963;42.694;23.600;2023-02-21T03:33:20;95498.31;;;0.79;100.00
40245;BME280;25963;42.694;23.600;2023-02-21T03:35:47;95499.28;;;0.78;100.00
40245;BME280;25963;42.694;23.600;2023-02-21T03:38:13;95496.31;;;0.73;100.00
40245;BME280;25963;42.694;23.600;2023-02-21T03:40:39;95499.13;;;0.62;100.00
40245;BME280;25963;42.694;23.600;2023-02-21T03:43:05;95503.22;;;0.64;100.00
40245;BME280;25963;42.694;23.600;2023-02-21T03:45:34;95500.47;;;0.48;100.00
40245;BME280;25963;42.694;23.600;2023-02-21T03:48:00;95507.38;;;0.30;100.00
40245;BME280;25963;42.694;23.600;2023-02-21T03:50:26;95504.50;;;0.33;100.00
40245;BME280;25963;42.694;23.600;2023-02-21T03:52:51;95493.69;;;0.37;100.00
40245;BME280;25963;42.694;23.600;2023-02-21T03:55:17;95504.16;;;0.45;100.00
40245;BME280;25963;42.694;23.600;2023-02-21T03:57:43;95515.19;;;0.48;100.00
40245;BME280;25963;42.694;23.600;2023-02-21T04:00:09;95508.06;;;0.32;100.00
40245;BME280;25963;42.694;23.600;2023-02-21T04:02:35;95506.28;;;0.32;100.00
40245;BME280;25963;42.694;23.600;2023-02-21T04:05:00;95514.22;;;0.31;100.00
40245;BME280;25963;42.694;23.600;2023-02-21T04:07:26;95512.16;;;0.34;100.00
40245;BME280;25963;42.694;23.600;2023-02-21T04:09:51;95509.75;;;0.23;100.00
40245;BME280;25963;42.694;23.600;2023-02-21T04:12:17;95508.50;;;0.27;100.00
40245;BME280;25963;42.694;23.600;2023-02-21T04:14:42;95515.63;;;0.25;100.00
40245;BME280;25963;42.694;23.600;2023-02-21T04:17:08;95515.91;;;0.22;100.00
40245;BME280;25963;42.694;23.600;2023-02-21T04:19:33;95510.09;;;0.10;100.00
40245;BME280;25963;42.694;23.600;2023-02-21T04:21:59;95509.19;;;0.02;100.00
40245;BME280;25963;42.694;23.600;2023-02-21T04:24:24;95511.94;;;0.18;100.00
40245;BME280;25963;42.694;23.600;2023-02-21T04:26:50;95516.19;;;0.19;100.00
40245;BME280;25963;42.694;23.600;2023-02-21T04:29:15;95517.94;;;0.28;100.00
40245;BME280;25963;42.694;23.600;2023-02-21T04:31:40;95518.78;;;0.19;100.00
40245;BME280;25963;42.694;23.600;2023-02-21T04:34:06;95531.19;;;0.25;100.00
40245;BME280;25963;42.694;23.600;2023-02-21T04:36:31;95524.50;;;0.22;100.00
40245;BME280;25963;42.694;23.600;2023-02-21T04:38:57;95523.16;;;0.18;100.00
40245;BME280;25963;42.694;23.600;2023-02-21T04:41:22;95523.97;;;0.19;100.00
40245;BME280;25963;42.694;23.600;2023-02-21T04:43:48;95514.53;;;0.18;100.00
40245;BME280;25963;42.694;23.600;2023-02-21T04:46:14;95513.09;;;0.15;100.00
40245;BME280;25963;42.694;23.600;2023-02-21T04:48:47;95521.97;;;0.13;100.00
40245;BME280;25963;42.694;23.600;2023-02-21T04:51:16;95515.34;;;0.01;100.00
40245;BME280;25963;42.694;23.600;2023-02-21T04:53:42;95516.03;;;-0.07;100.00
40245;BME280;25963;42.694;23.600;2023-02-21T04:56:08;95516.09;;;-0.17;100.00
40245;BME280;25963;42.694;23.600;2023-02-21T04:58:35;95515.97;;;-0.25;100.00
40245;BME280;25963;42.694;23.600;2023-02-21T05:01:00;95526.50;;;-0.36;100.00
40245;BME280;25963;42.694;23.600;2023-02-21T05:03:26;95514.78;;;-0.40;100.00
40245;BME280;25963;42.694;23.600;2023-02-21T05:05:51;95524.91;;;-0.47;100.00
40245;BME280;25963;42.694;23.600;2023-02-21T05:08:17;95515.25;;;-0.55;100.00
40245;BME280;25963;42.694;23.600;2023-02-21T05:10:42;95513.81;;;-0.39;100.00
40245;BME280;25963;42.694;23.600;2023-02-21T05:13:07;95500.88;;;-0.39;100.00
40245;BME280;25963;42.694;23.600;2023-02-21T05:15:33;95514.47;;;-0.28;100.00
40245;BME280;25963;42.694;23.600;2023-02-21T05:17:59;95510.09;;;-0.27;100.00
40245;BME280;25963;42.694;23.600;2023-02-21T05:20:24;95508.75;;;-0.31;100.00
40245;BME280;25963;42.694;23.600;2023-02-21T05:22:50;95510.38;;;-0.30;100.00
40245;BME280;25963;42.694;23.600;2023-02-21T05:25:17;95505.19;;;-0.30;100.00
40245;BME280;25963;42.694;23.600;2023-02-21T05:27:43;95512.28;;;-0.22;100.00
40245;BME280;25963;42.694;23.600;2023-02-21T05:30:09;95500.97;;;-0.31;100.00
40245;BME280;25963;42.694;23.600;2023-02-21T05:32:35;95517.81;;;-0.55;100.00
40245;BME280;25963;42.694;23.600;2023-02-21T05:35:00;95518.63;;;-0.44;100.00
40245;BME280;25963;42.694;23.600;2023-02-21T05:37:26;95526.94;;;-0.41;100.00
40245;BME280;25963;42.694;23.600;2023-02-21T05:39:51;95528.44;;;-0.38;100.00
40245;BME280;25963;42.694;23.600;2023-02-21T05:42:17;95520.78;;;-0.40;100.00
40245;BME280;25963;42.694;23.600;2023-02-21T05:44:44;95518.03;;;-0.29;100.00
40245;BME280;25963;42.694;23.600;2023-02-21T05:47:10;95519.38;;;-0.25;100.00
40245;BME280;25963;42.694;23.600;2023-02-21T05:49:35;95525.94;;;-0.20;100.00
40245;BME280;25963;42.694;23.600;2023-02-21T05:52:00;95525.19;;;-0.13;100.00
40245;BME280;25963;42.694;23.600;2023-02-21T05:54:26;95517.59;;;-0.14;100.00
40245;BME280;25963;42.694;23.600;2023-02-21T05:56:51;95526.47;;;-0.17;100.00
40245;BME280;25963;42.694;23.600;2023-02-21T05:59:18;95529.16;;;-0.09;100.00
40245;BME280;25963;42.694;23.600;2023-02-21T06:01:45;95523.97;;;0.19;100.00
40245;BME280;25963;42.694;23.600;2023-02-21T06:04:11;95524.66;;;1.02;100.00
40245;BME280;25963;42.694;23.600;2023-02-21T06:06:37;95534.63;;;2.11;100.00
40245;BME280;25963;42.694;23.600;2023-02-21T06:09:03;95529.03;;;2.99;96.26
40245;BME280;25963;42.694;23.600;2023-02-21T06:11:31;95526.75;;;3.61;89.15
40245;BME280;25963;42.694;23.600;2023-02-21T06:14:04;95515.78;;;4.30;86.01
40245;BME280;25963;42.694;23.600;2023-02-21T06:16:34;95517.59;;;4.92;82.13
40245;BME280;25963;42.694;23.600;2023-02-21T06:19:00;95524.97;;;5.34;78.40
40245;BME280;25963;42.694;23.600;2023-02-21T06:21:25;95524.00;;;5.73;79.40
40245;BME280;25963;42.694;23.600;2023-02-21T06:23:51;95523.69;;;6.06;76.53
40245;BME280;25963;42.694;23.600;2023-02-21T06:26:17;95520.88;;;6.37;75.43
40245;BME280;25963;42.694;23.600;2023-02-21T06:28:42;95514.72;;;6.59;73.55
40245;BME280;25963;42.694;23.600;2023-02-21T06:31:08;95518.09;;;6.90;73.00
40245;BME280;25963;42.694;23.600;2023-02-21T06:33:34;95521.78;;;7.17;73.81
40245;BME280;25963;42.694;23.600;2023-02-21T06:36:07;95519.09;;;7.31;72.00
40245;BME280;25963;42.694;23.600;2023-02-21T06:38:33;95527.34;;;7.07;69.86
40245;BME280;25963;42.694;23.600;2023-02-21T06:40:59;95530.41;;;6.74;75.08
40245;BME280;25963;42.694;23.600;2023-02-21T06:43:25;95534.13;;;6.80;78.57
40245;BME280;25963;42.694;23.600;2023-02-21T06:45:50;95542.00;;;6.80;74.40
40245;BME280;25963;42.694;23.600;2023-02-21T06:48:16;95533.91;;;6.81;72.83
40245;BME280;25963;42.694;23.600;2023-02-21T06:50:42;95534.63;;;6.90;72.87
40245;BME280;25963;42.694;23.600;2023-02-21T06:53:07;95536.44;;;6.90;70.24
40245;BME280;25963;42.694;23.600;2023-02-21T06:55:33;95533.81;;;6.90;74.55
40245;BME280;25963;42.694;23.600;2023-02-21T06:57:58;95530.72;;;7.01;70.81
40245;BME280;25963;42.694;23.600;2023-02-21T07:00:24;95545.88;;;7.05;72.58
40245;BME280;25963;42.694;23.600;2023-02-21T07:02:51;95531.84;;;7.13;72.46
40245;BME280;25963;42.694;23.600;2023-02-21T07:05:17;95536.28;;;7.13;75.51
40245;BME280;25963;42.694;23.600;2023-02-21T07:07:43;95531.66;;;7.15;73.14
40245;BME280;25963;42.694;23.600;2023-02-21T07:10:08;95525.97;;;7.32;79.85
40245;BME280;25963;42.694;23.600;2023-02-21T07:12:34;95529.84;;;7.37;75.41
40245;BME280;25963;42.694;23.600;2023-02-21T07:15:00;95526.84;;;7.40;74.86
40245;BME280;25963;42.694;23.600;2023-02-21T07:17:25;95520.47;;;7.49;75.18
40245;BME280;25963;42.694;23.600;2023-02-21T07:19:51;95524.47;;;7.45;72.07
40245;BME280;25963;42.694;23.600;2023-02-21T07:22:16;95520.03;;;7.45;78.30
40245;BME280;25963;42.694;23.600;2023-02-21T07:24:43;95522.34;;;7.55;76.42
40245;BME280;25963;42.694;23.600;2023-02-21T07:27:08;95515.41;;;7.69;73.79
40245;BME280;25963;42.694;23.600;2023-02-21T07:29:34;95509.88;;;7.92;76.42
40245;BME280;25963;42.694;23.600;2023-02-21T07:31:59;95509.38;;;8.10;76.90
40245;BME280;25963;42.694;23.600;2023-02-21T07:34:25;95509.50;;;8.30;75.09
40245;BME280;25963;42.694;23.600;2023-02-21T07:36:50;95501.38;;;8.59;73.09
40245;BME280;25963;42.694;23.600;2023-02-21T07:39:15;95495.78;;;8.82;77.93
40245;BME280;25963;42.694;23.600;2023-02-21T07:41:41;95500.47;;;8.94;67.13
40245;BME280;25963;42.694;23.600;2023-02-21T07:44:06;95501.34;;;9.07;69.44
40245;BME280;25963;42.694;23.600;2023-02-21T07:46:32;95503.00;;;9.28;64.46
40245;BME280;25963;42.694;23.600;2023-02-21T07:48:59;95503.78;;;9.35;60.88
40245;BME280;25963;42.694;23.600;2023-02-21T07:51:28;95492.47;;;9.42;68.17
40245;BME280;25963;42.694;23.600;2023-02-21T07:53:54;95491.28;;;9.57;64.18
40245;BME280;25963;42.694;23.600;2023-02-21T07:56:19;95498.97;;;9.79;68.85
40245;BME280;25963;42.694;23.600;2023-02-21T07:58:45;95490.44;;;9.90;66.52
40245;BME280;25963;42.694;23.600;2023-02-21T08:01:10;95485.72;;;10.12;64.24
40245;BME280;25963;42.694;23.600;2023-02-21T08:03:36;95483.28;;;10.11;59.68
40245;BME280;25963;42.694;23.600;2023-02-21T08:06:02;95479.63;;;10.18;60.70
40245;BME280;25963;42.694;23.600;2023-02-21T08:08:28;95480.44;;;10.32;61.99
40245;BME280;25963;42.694;23.600;2023-02-21T08:10:53;95477.91;;;10.57;60.31
40245;BME280;25963;42.694;23.600;2023-02-21T08:13:19;95468.66;;;10.86;58.80
40245;BME280;25963;42.694;23.600;2023-02-21T08:15:44;95466.84;;;10.80;57.48
40245;BME280;25963;42.694;23.600;2023-02-21T08:18:20;95465.50;;;11.03;59.31
40245;BME280;25963;42.694;23.600;2023-02-21T08:20:49;95468.09;;;11.09;55.84
40245;BME280;25963;42.694;23.600;2023-02-21T08:23:15;95460.47;;;10.94;54.36
40245;BME280;25963;42.694;23.600;2023-02-21T08:25:43;95461.81;;;11.04;59.12
40245;BME280;25963;42.694;23.600;2023-02-21T08:28:08;95461.28;;;11.27;56.91
40245;BME280;25963;42.694;23.600;2023-02-21T08:30:33;95454.66;;;11.42;55.94
40245;BME280;25963;42.694;23.600;2023-02-21T08:32:59;95449.59;;;11.66;58.50
40245;BME280;25963;42.694;23.600;2023-02-21T08:35:24;95456.19;;;11.82;55.13
40245;BME280;25963;42.694;23.600;2023-02-21T08:37:50;95451.16;;;12.17;61.01
40245;BME280;25963;42.694;23.600;2023-02-21T08:40:18;95446.19;;;12.27;58.95
40245;BME280;25963;42.694;23.600;2023-02-21T08:42:48;95443.88;;;12.49;58.36
40245;BME280;25963;42.694;23.600;2023-02-21T08:45:15;95444.44;;;12.70;54.08
40245;BME280;25963;42.694;23.600;2023-02-21T08:47:41;95437.47;;;12.75;53.05
40245;BME280;25963;42.694;23.600;2023-02-21T08:50:07;95436.13;;;12.85;50.21
40245;BME280;25963;42.694;23.600;2023-02-21T08:52:32;95426.91;;;12.87;50.71
40245;BME280;25963;42.694;23.600;2023-02-21T08:54:57;95430.06;;;12.96;50.83
40245;BME280;25963;42.694;23.600;2023-02-21T08:57:23;95430.41;;;12.99;51.00
40245;BME280;25963;42.694;23.600;2023-02-21T08:59:48;95435.06;;;12.86;50.34
40245;BME280;25963;42.694;23.600;2023-02-21T09:02:19;95430.03;;;12.84;52.05
40245;BME280;25963;42.694;23.600;2023-02-21T09:04:45;95424.41;;;12.92;54.08
40245;BME280;25963;42.694;23.600;2023-02-21T09:07:16;95428.75;;;12.87;49.04
40245;BME280;25963;42.694;23.600;2023-02-21T09:09:42;95429.25;;;12.95;50.15
40245;BME280;25963;42.694;23.600;2023-02-21T09:12:08;95426.00;;;13.23;49.26
40245;BME280;25963;42.694;23.600;2023-02-21T09:14:34;95416.25;;;13.36;53.83
40245;BME280;25963;42.694;23.600;2023-02-21T09:17:00;95414.41;;;13.36;47.99
40245;BME280;25963;42.694;23.600;2023-02-21T09:19:26;95412.72;;;13.65;50.26
40245;BME280;25963;42.694;23.600;2023-02-21T09:21:52;95421.81;;;13.69;49.10
40245;BME280;25963;42.694;23.600;2023-02-21T09:24:22;95414.91;;;13.68;47.51
40245;BME280;25963;42.694;23.600;2023-02-21T09:26:51;95419.84;;;13.65;49.49
40245;BME280;25963;42.694;23.600;2023-02-21T09:29:19;95415.59;;;13.52;46.71
40245;BME280;25963;42.694;23.600;2023-02-21T09:31:45;95411.19;;;13.46;47.94
40245;BME280;25963;42.694;23.600;2023-02-21T09:34:10;95405.66;;;13.36;48.37
40245;BME280;25963;42.694;23.600;2023-02-21T09:36:35;95397.31;;;13.20;50.37
40245;BME280;25963;42.694;23.600;2023-02-21T09:39:01;95404.72;;;13.42;46.97
40245;BME280;25963;42.694;23.600;2023-02-21T09:41:31;95403.72;;;13.78;45.81
40245;BME280;25963;42.694;23.600;2023-02-21T09:43:57;95398.19;;;13.80;48.96
40245;BME280;25963;42.694;23.600;2023-02-21T09:46:36;95392.06;;;13.91;47.33
40245;BME280;25963;42.694;23.600;2023-02-21T09:49:09;95398.63;;;14.12;46.05
40245;BME280;25963;42.694;23.600;2023-02-21T09:51:37;95390.94;;;14.39;48.20
40245;BME280;25963;42.694;23.600;2023-02-21T09:54:12;95380.41;;;14.44;48.79
40245;BME280;25963;42.694;23.600;2023-02-21T09:56:43;95371.59;;;14.67;48.16
40245;BME280;25963;42.694;23.600;2023-02-21T09:59:12;95373.34;;;15.07;43.37
40245;BME280;25963;42.694;23.600;2023-02-21T10:02:05;95364.84;;;15.39;44.11
40245;BME280;25963;42.694;23.600;2023-02-21T10:20:57;95325.38;;;17.06;39.87
40245;BME280;25963;42.694;23.600;2023-02-21T10:23:25;95329.25;;;17.26;42.21
40245;BME280;25963;42.694;23.600;2023-02-21T10:25:56;95325.84;;;17.30;39.39
40245;BME280;25963;42.694;23.600;2023-02-21T10:28:24;95326.91;;;17.29;39.42
40245;BME280;25963;42.694;23.600;2023-02-21T10:30:56;95318.97;;;17.40;40.75
40245;BME280;25963;42.694;23.600;2023-02-21T10:33:23;95313.16;;;17.48;39.07
40245;BME280;25963;42.694;23.600;2023-02-21T10:35:48;95309.00;;;17.25;38.64
40245;BME280;25963;42.694;23.600;2023-02-21T10:38:18;95302.81;;;17.19;37.53
40245;BME280;25963;42.694;23.600;2023-02-21T10:40:49;95304.06;;;17.06;41.22
40245;BME280;25963;42.694;23.600;2023-02-21T10:45:56;95297.78;;;17.60;41.13
40245;BME280;25963;42.694;23.600;2023-02-21T10:48:26;95283.41;;;17.66;36.08
40245;BME280;25963;42.694;23.600;2023-02-21T10:53:36;95275.00;;;17.05;38.24
40245;BME280;25963;42.694;23.600;2023-02-21T10:56:17;95270.78;;;17.09;35.44
40245;BME280;25963;42.694;23.600;2023-02-21T11:03:58;95250.16;;;17.37;39.43
40245;BME280;25963;42.694;23.600;2023-02-21T11:08:56;95245.50;;;17.64;37.59
40245;BME280;25963;42.694;23.600;2023-02-21T11:14:30;95231.25;;;17.43;40.88
40245;BME280;25963;42.694;23.600;2023-02-21T11:17:12;95226.25;;;17.52;36.01
40245;BME280;25963;42.694;23.600;2023-02-21T11:22:22;95213.72;;;17.47;38.55
40245;BME280;25963;42.694;23.600;2023-02-21T11:24:58;95206.41;;;17.80;36.31
40245;BME280;25963;42.694;23.600;2023-02-21T11:27:27;95200.84;;;17.97;34.56
40245;BME280;25963;42.694;23.600;2023-02-21T11:29:54;95196.94;;;18.45;40.29
40245;BME280;25963;42.694;23.600;2023-02-21T11:32:29;95178.78;;;18.47;32.74
40245;BME280;25963;42.694;23.600;2023-02-21T11:35:22;95190.25;;;18.48;31.29
40245;BME280;25963;42.694;23.600;2023-02-21T11:40:28;95181.19;;;18.59;31.25
40245;BME280;25963;42.694;23.600;2023-02-21T11:51:54;95143.53;;;18.86;30.28
40245;BME280;25963;42.694;23.600;2023-02-21T11:54:24;95139.47;;;19.04;30.24
40245;BME280;25963;42.694;23.600;2023-02-21T11:56:58;95132.28;;;19.00;29.94
40245;BME280;25963;42.694;23.600;2023-02-21T11:59:57;95119.19;;;18.93;29.12
40245;BME280;25963;42.694;23.600;2023-02-21T12:08:38;95114.97;;;18.82;28.59
40245;BME280;25963;42.694;23.600;2023-02-21T12:25:01;95079.09;;;18.93;26.84
40245;BME280;25963;42.694;23.600;2023-02-21T12:30:49;95069.78;;;18.70;26.63
40245;BME280;25963;42.694;23.600;2023-02-21T12:36:49;95057.75;;;18.67;29.33
40245;BME280;25963;42.694;23.600;2023-02-21T12:44:28;95056.44;;;18.65;29.14
40245;BME280;25963;42.694;23.600;2023-02-21T12:47:26;95044.94;;;18.75;27.83
40245;BME280;25963;42.694;23.600;2023-02-21T12:49:58;95038.22;;;18.72;28.95
40245;BME280;25963;42.694;23.600;2023-02-21T12:52:33;95050.53;;;18.63;27.14
40245;BME280;25963;42.694;23.600;2023-02-21T12:55:11;95048.41;;;18.70;28.71
40245;BME280;25963;42.694;23.600;2023-02-21T13:05:12;95053.75;;;18.70;28.13
40245;BME280;25963;42.694;23.600;2023-02-21T13:10:49;95040.69;;;18.79;28.01
40245;BME280;25963;42.694;23.600;2023-02-21T13:13:21;95048.41;;;18.80;27.94
40245;BME280;25963;42.694;23.600;2023-02-21T13:15:49;95037.41;;;18.87;27.99
40245;BME280;25963;42.694;23.600;2023-02-21T13:18:24;95046.03;;;18.74;27.22
40245;BME280;25963;42.694;23.600;2023-02-21T13:23:45;95038.25;;;18.77;25.36
40245;BME280;25963;42.694;23.600;2023-02-21T13:29:00;95024.81;;;19.03;27.38
40245;BME280;25963;42.694;23.600;2023-02-21T13:31:35;95030.38;;;19.11;27.30
40245;BME280;25963;42.694;23.600;2023-02-21T13:34:05;95032.56;;;19.04;25.90
40245;BME280;25963;42.694;23.600;2023-02-21T13:36:41;95029.34;;;19.02;25.88
40245;BME280;25963;42.694;23.600;2023-02-21T13:41:45;95034.13;;;19.10;26.41
40245;BME280;25963;42.694;23.600;2023-02-21T13:44:37;95026.72;;;18.92;26.31
40245;BME280;25963;42.694;23.600;2023-02-21T13:47:12;95026.19;;;18.90;26.58
40245;BME280;25963;42.694;23.600;2023-02-21T13:49:57;95008.50;;;18.99;26.36
40245;BME280;25963;42.694;23.600;2023-02-21T13:52:50;95012.50;;;19.12;26.21
40245;BME280;25963;42.694;23.600;2023-02-21T14:08:23;95002.66;;;18.92;26.47
40245;BME280;25963;42.694;23.600;2023-02-21T14:18:38;94994.13;;;18.90;26.40
40245;BME280;25963;42.694;23.600;2023-02-21T14:21:21;95002.19;;;18.85;26.28
40245;BME280;25963;42.694;23.600;2023-02-21T14:29:12;94999.03;;;18.42;26.16
40245;BME280;25963;42.694;23.600;2023-02-21T14:31:49;94999.84;;;18.42;25.67
40245;BME280;25963;42.694;23.600;2023-02-21T14:37:34;94993.19;;;18.35;25.91
40245;BME280;25963;42.694;23.600;2023-02-21T14:40:25;94994.78;;;18.31;26.22
40245;BME280;25963;42.694;23.600;2023-02-21T14:59:29;94987.34;;;17.82;26.33
40245;BME280;25963;42.694;23.600;2023-02-21T15:02:27;94994.03;;;17.79;27.06
40245;BME280;25963;42.694;23.600;2023-02-21T15:10:17;94990.78;;;17.56;26.84
40245;BME280;25963;42.694;23.600;2023-02-21T15:12:51;94989.72;;;17.57;27.55
40245;BME280;25963;42.694;23.600;2023-02-21T15:15:43;94987.56;;;17.44;27.48
40245;BME280;25963;42.694;23.600;2023-02-21T15:18:11;94980.59;;;17.28;27.14
40245;BME280;25963;42.694;23.600;2023-02-21T15:20:39;94993.34;;;17.16;27.26
40245;BME280;25963;42.694;23.600;2023-02-21T15:23:12;94993.38;;;17.21;27.14
40245;BME280;25963;42.694;23.600;2023-02-21T15:25:38;94996.28;;;17.09;27.52
40245;BME280;25963;42.694;23.600;2023-02-21T15:28:06;94997.38;;;17.18;27.46
40245;BME280;25963;42.694;23.600;2023-02-21T15:30:39;95004.00;;;17.05;27.92
40245;BME280;25963;42.694;23.600;2023-02-21T15:33:11;94994.94;;;17.06;28.10
40245;BME280;25963;42.694;23.600;2023-02-21T15:35:47;94997.78;;;16.89;28.04
40245;BME280;25963;42.694;23.600;2023-02-21T15:40:55;95002.88;;;16.43;27.79
40245;BME280;25963;42.694;23.600;2023-02-21T15:43:28;95012.13;;;16.31;27.86
40245;BME280;25963;42.694;23.600;2023-02-21T15:45:56;95013.41;;;16.23;27.78
40245;BME280;25963;42.694;23.600;2023-02-21T15:48:23;95014.47;;;16.22;28.21
40245;BME280;25963;42.694;23.600;2023-02-21T15:50:49;95010.56;;;15.97;28.46
40245;BME280;25963;42.694;23.600;2023-02-21T15:53:20;95009.44;;;15.93;28.29
40245;BME280;25963;42.694;23.600;2023-02-21T15:55:47;95006.25;;;15.91;28.53
40245;BME280;25963;42.694;23.600;2023-02-21T16:00:47;95018.38;;;15.50;29.19
40245;BME280;25963;42.694;23.600;2023-02-21T16:03:33;95019.59;;;15.42;29.30
40245;BME280;25963;42.694;23.600;2023-02-21T16:11:46;95025.09;;;15.09;30.09
40245;BME280;25963;42.694;23.600;2023-02-21T16:19:39;95031.16;;;14.43;31.53
40245;BME280;25963;42.694;23.600;2023-02-21T16:22:32;95039.47;;;14.30;32.16
40245;BME280;25963;42.694;23.600;2023-02-21T16:27:30;95035.34;;;14.05;32.78
40245;BME280;25963;42.694;23.600;2023-02-21T16:29:57;95025.00;;;13.87;32.63
40245;BME280;25963;42.694;23.600;2023-02-21T16:32:22;95040.75;;;13.77;33.28
40245;BME280;25963;42.694;23.600;2023-02-21T16:34:50;95038.59;;;13.74;33.25
40245;BME280;25963;42.694;23.600;2023-02-21T16:37:19;95049.72;;;13.76;32.70